createdAt,value
2023-02-14T00:00:28.986Z,10.40
2023-02-14T00:02:57.043Z,9.02
2023-02-14T00:05:23.794Z,12.77
2023-02-14T00:07:50.265Z,9.23
2023-02-14T00:10:17.296Z,7.75
2023-02-14T00:12:43.616Z,9.00
2023-02-14T00:15:22.237Z,10.57
2023-02-14T00:17:59.316Z,9.95
2023-02-14T00:20:26.841Z,8.85
2023-02-14T00:22:53.261Z,10.95
2023-02-14T00:25:19.707Z,8.10
2023-02-14T00:27:46.011Z,9.13
2023-02-14T00:30:14.059Z,11.77
2023-02-14T00:32:41.771Z,14.00
2023-02-14T00:35:09.817Z,13.32
2023-02-14T00:37:37.797Z,12.43
2023-02-14T00:40:06.389Z,12.38
2023-02-14T00:42:32.752Z,10.23
2023-02-14T00:44:59.102Z,14.63
2023-02-14T00:47:25.590Z,14.10
2023-02-14T00:49:52.018Z,13.82
2023-02-14T00:52:18.426Z,15.05
2023-02-14T00:54:44.750Z,13.05
2023-02-14T00:57:13.519Z,13.18
2023-02-14T00:59:39.834Z,12.20
2023-02-14T01:02:06.286Z,11.50
2023-02-14T01:04:33.996Z,11.35
2023-02-14T01:07:00.306Z,12.68
2023-02-14T01:09:26.660Z,11.77
2023-02-14T01:11:53.019Z,12.15
2023-02-14T01:14:19.429Z,13.27
2023-02-14T01:16:45.944Z,14.65
2023-02-14T01:19:12.342Z,15.35
2023-02-14T01:21:38.696Z,15.13
2023-02-14T01:24:07.775Z,11.35
2023-02-14T01:26:35.084Z,12.05
2023-02-14T01:29:02.098Z,13.32
2023-02-14T01:31:32.647Z,14.07
2023-02-14T01:33:59.861Z,12.35
2023-02-14T01:36:35.518Z,11.73
2023-02-14T01:39:06.273Z,16.13
2023-02-14T01:41:35.304Z,17.65
2023-02-14T01:44:07.601Z,13.48
2023-02-14T01:46:36.767Z,14.70
2023-02-14T01:49:18.427Z,15.13
2023-02-14T01:51:56.977Z,18.67
2023-02-14T01:54:46.291Z,16.52
2023-02-14T01:57:16.486Z,16.98
2023-02-14T01:59:50.047Z,19.05
2023-02-14T02:02:49.235Z,17.08
2023-02-14T02:05:16.412Z,17.45
2023-02-14T02:07:42.875Z,16.88
2023-02-14T02:10:09.623Z,15.93
2023-02-14T02:12:36.477Z,18.83
2023-02-14T02:15:04.676Z,15.45
2023-02-14T02:18:00.258Z,17.85
2023-02-14T02:20:50.875Z,14.60
2023-02-14T02:23:48.732Z,14.13
2023-02-14T02:26:40.094Z,17.73
2023-02-14T02:37:23.264Z,21.00
2023-02-14T02:40:32.608Z,16.55
2023-02-14T02:43:37.040Z,15.93
2023-02-14T02:46:30.348Z,18.40
2023-02-14T02:49:40.955Z,16.10
2023-02-14T02:52:40.716Z,16.42
2023-02-14T02:55:15.959Z,18.77
2023-02-14T02:57:44.468Z,16.50
2023-02-14T03:00:13.563Z,16.15
2023-02-14T03:03:46.390Z,16.17
2023-02-14T03:06:12.762Z,15.00
2023-02-14T03:08:39.126Z,17.13
2023-02-14T03:11:05.567Z,17.88
2023-02-14T03:13:40.901Z,21.02
2023-02-14T03:16:32.731Z,16.75
2023-02-14T03:19:10.252Z,17.48
2023-02-14T03:22:20.141Z,19.27
2023-02-14T03:24:56.150Z,19.20
2023-02-14T03:28:11.533Z,23.25
2023-02-14T03:35:12.523Z,16.83
2023-02-14T03:38:12.248Z,15.75
2023-02-14T03:40:49.298Z,19.52
2023-02-14T03:43:59.135Z,17.13
2023-02-14T03:46:35.035Z,18.30
2023-02-14T03:53:10.036Z,23.23
2023-02-14T03:55:44.128Z,18.20
2023-02-14T03:58:20.665Z,21.95
2023-02-14T04:00:50.463Z,19.70
2023-02-14T04:03:19.597Z,21.10
2023-02-14T04:05:52.057Z,19.75
2023-02-14T04:08:27.821Z,21.90
2023-02-14T04:15:16.478Z,23.13
2023-02-14T13:33:03.913Z,93.00
2023-02-14T13:35:34.162Z,53.75
2023-02-14T13:42:06.982Z,46.28
2023-02-14T13:44:46.269Z,67.50
2023-02-14T13:47:34.369Z,60.40
2023-02-14T13:50:02.194Z,47.05
2023-02-14T13:53:13.643Z,49.97
2023-02-14T13:55:44.396Z,49.47
2023-02-14T13:58:23.391Z,52.00
2023-02-14T14:00:53.605Z,44.13
2023-02-14T14:03:26.074Z,43.83
2023-02-14T14:05:58.737Z,45.00
2023-02-14T14:08:27.571Z,41.88
2023-02-14T14:10:57.655Z,42.28
2023-02-14T14:13:42.277Z,41.28
2023-02-14T14:16:24.363Z,38.80
2023-02-14T14:18:57.088Z,41.83
2023-02-14T14:21:30.594Z,41.20
2023-02-14T14:24:06.222Z,39.50
2023-02-14T14:26:45.773Z,43.97
2023-02-14T14:29:29.736Z,38.95
2023-02-14T14:31:56.638Z,45.13
2023-02-14T14:34:25.899Z,42.65
2023-02-14T14:37:07.136Z,43.00
2023-02-14T14:39:35.183Z,39.85
2023-02-14T14:42:15.406Z,42.92
2023-02-14T14:44:50.113Z,44.53
2023-02-14T14:47:21.124Z,45.75
2023-02-14T14:49:48.024Z,42.53
2023-02-14T14:52:28.897Z,46.25
2023-02-14T14:54:56.023Z,47.10
2023-02-14T16:00:26.623Z,147.60
2023-02-14T16:02:58.059Z,194.73
2023-02-14T16:05:26.156Z,175.90
2023-02-14T16:08:05.737Z,107.32
2023-02-14T16:10:37.579Z,85.78
2023-02-14T16:13:20.314Z,63.70
2023-02-14T16:15:59.425Z,61.75
2023-02-14T16:18:37.750Z,70.18
2023-02-14T16:21:14.735Z,54.97
2023-02-14T16:23:41.750Z,55.13
2023-02-14T16:26:08.721Z,56.20
2023-02-14T16:28:36.819Z,54.97
2023-02-14T16:31:10.022Z,63.65
2023-02-14T16:33:39.247Z,57.15
2023-02-14T16:36:19.419Z,54.38
2023-02-14T16:38:46.354Z,56.05
2023-02-14T16:41:16.525Z,53.38
2023-02-14T16:43:42.958Z,61.13
2023-02-14T16:46:12.519Z,75.95
2023-02-14T16:48:38.995Z,64.68
2023-02-14T16:51:05.780Z,68.38
2023-02-14T16:53:32.173Z,64.13
2023-02-14T16:55:58.676Z,66.20
2023-02-14T16:58:31.761Z,57.08
2023-02-14T17:00:58.594Z,65.07
2023-02-14T17:03:25.194Z,64.93
2023-02-14T17:05:52.002Z,63.65
2023-02-14T17:08:18.685Z,64.72
2023-02-14T17:10:47.827Z,61.00
2023-02-14T17:13:19.072Z,65.95
2023-02-14T17:18:14.797Z,67.13
2023-02-14T17:20:41.195Z,68.80
2023-02-14T17:23:07.636Z,74.00
2023-02-14T17:25:35.004Z,63.85
2023-02-14T17:28:01.359Z,77.60
2023-02-14T17:30:28.143Z,132.38
2023-02-14T17:32:54.444Z,111.20
2023-02-14T17:35:21.150Z,103.75
2023-02-14T17:37:47.463Z,92.03
2023-02-14T17:40:14.874Z,84.05
2023-02-14T17:42:42.080Z,76.68
2023-02-14T17:45:11.569Z,72.50
2023-02-14T17:47:39.591Z,67.63
2023-02-14T17:50:06.700Z,71.03
2023-02-14T17:52:33.061Z,64.45
2023-02-14T17:54:59.885Z,65.03
2023-02-14T17:57:26.244Z,66.03
2023-02-14T17:59:53.350Z,80.35
2023-02-14T18:02:19.695Z,94.47
2023-02-14T18:04:48.152Z,69.55
2023-02-14T18:07:14.615Z,60.95
2023-02-14T18:09:40.957Z,68.07
2023-02-14T18:12:07.576Z,69.68
2023-02-14T18:14:34.303Z,65.80
2023-02-14T18:17:00.711Z,74.90
2023-02-14T18:19:27.807Z,198.07
2023-02-14T18:21:54.283Z,116.85
2023-02-14T18:24:20.610Z,85.10
2023-02-14T18:26:47.238Z,70.53
2023-02-14T18:29:13.669Z,60.38
2023-02-14T18:31:42.665Z,64.70
2023-02-14T18:34:09.502Z,74.00
2023-02-14T18:36:37.381Z,74.63
2023-02-14T18:39:04.497Z,88.00
2023-02-14T18:41:31.249Z,79.93
2023-02-14T18:43:58.227Z,81.88
2023-02-14T18:46:27.280Z,73.72
2023-02-14T18:48:55.785Z,84.53
2023-02-14T18:51:24.833Z,75.63
2023-02-14T18:53:52.245Z,111.18
2023-02-14T18:56:21.182Z,90.00
2023-02-14T18:58:52.533Z,78.05
2023-02-14T19:01:22.135Z,89.97
2023-02-14T19:03:50.312Z,90.97
2023-02-14T19:06:17.902Z,86.85
2023-02-14T19:08:44.700Z,88.50
2023-02-14T19:11:17.619Z,85.07
2023-02-14T19:13:45.901Z,93.07
2023-02-14T19:16:14.571Z,81.82
2023-02-14T19:18:41.023Z,77.03
2023-02-14T19:21:20.525Z,83.82
2023-02-14T19:23:46.972Z,75.05
2023-02-14T19:26:29.547Z,72.30
2023-02-14T19:28:57.969Z,75.68
2023-02-14T19:31:25.300Z,71.47
2023-02-14T19:33:51.866Z,76.93
2023-02-14T19:36:20.437Z,71.95
2023-02-14T19:38:49.369Z,69.55
2023-02-14T19:41:24.399Z,65.35
2023-02-14T19:43:51.583Z,58.70
2023-02-14T19:46:19.990Z,68.50
2023-02-14T19:48:47.377Z,66.10
2023-02-14T19:51:20.271Z,66.93
2023-02-14T19:53:46.704Z,67.68
2023-02-14T19:56:17.693Z,86.65
2023-02-14T19:58:44.060Z,81.05
2023-02-14T20:01:21.849Z,83.68
2023-02-14T20:03:48.195Z,78.68
2023-02-14T20:06:15.349Z,100.68
2023-02-14T20:08:41.666Z,76.78
2023-02-14T20:11:29.722Z,98.30
2023-02-14T20:13:56.958Z,80.53
2023-02-14T20:16:25.942Z,84.43
2023-02-14T20:18:52.839Z,73.72
2023-02-14T20:21:24.386Z,84.18
2023-02-14T20:24:12.560Z,76.03
2023-02-14T20:26:40.333Z,74.28
2023-02-14T20:29:09.615Z,85.85
2023-02-14T20:31:39.631Z,89.85
2023-02-14T20:34:06.947Z,86.50
2023-02-14T20:36:33.276Z,86.38
2023-02-14T20:39:02.093Z,87.72
2023-02-14T20:41:29.734Z,86.50
2023-02-14T20:44:04.168Z,90.57
2023-02-14T20:46:30.971Z,92.07
2023-02-14T20:48:57.332Z,91.38
2023-02-14T20:51:23.864Z,86.80
2023-02-14T20:53:50.228Z,91.97
2023-02-14T20:56:16.926Z,91.93
2023-02-14T20:58:43.306Z,89.40
2023-02-14T21:01:20.119Z,86.90
2023-02-14T21:03:50.626Z,93.47
2023-02-14T21:06:19.162Z,86.45
2023-02-14T21:08:46.514Z,97.45
2023-02-14T21:11:15.320Z,87.18
2023-02-14T21:13:42.280Z,100.22
2023-02-14T21:16:17.334Z,83.93
2023-02-14T21:18:48.468Z,92.03
2023-02-14T21:21:24.613Z,96.18
2023-02-14T21:23:52.269Z,82.75
2023-02-14T21:26:20.030Z,84.47
2023-02-14T21:28:46.338Z,91.82
2023-02-14T21:31:15.070Z,91.65
2023-02-14T21:33:41.456Z,109.88
2023-02-14T21:36:09.196Z,84.20
2023-02-14T21:38:36.169Z,78.28
2023-02-14T21:41:05.136Z,66.07
2023-02-14T21:43:39.416Z,73.07
2023-02-14T21:46:07.837Z,89.43
2023-02-14T21:48:53.157Z,76.68
2023-02-14T21:51:20.156Z,77.22
2023-02-14T21:53:46.868Z,76.13
2023-02-14T21:56:17.955Z,108.43
2023-02-14T22:01:19.566Z,101.88
2023-02-14T22:03:46.598Z,81.47
2023-02-14T22:06:13.878Z,83.93
2023-02-14T22:08:40.649Z,95.03
2023-02-14T22:11:08.891Z,73.38
2023-02-14T22:13:35.916Z,90.70
2023-02-14T22:16:07.255Z,74.55
2023-02-14T22:18:33.796Z,64.82
2023-02-14T22:21:08.599Z,65.00
2023-02-14T22:23:35.417Z,69.22
2023-02-14T22:26:12.386Z,74.47
2023-02-14T22:28:39.842Z,63.42
2023-02-14T22:31:06.784Z,68.60
2023-02-14T22:33:33.498Z,70.25
2023-02-14T22:36:00.922Z,72.47
2023-02-14T22:38:27.614Z,68.63
2023-02-14T22:40:54.519Z,70.30
2023-02-14T22:43:21.939Z,73.63
2023-02-14T22:45:48.847Z,69.47
2023-02-14T22:48:15.415Z,65.32
2023-02-14T22:50:41.901Z,81.40
2023-02-14T22:53:08.215Z,63.75
2023-02-14T22:55:34.689Z,86.35
2023-02-14T22:58:01.198Z,81.22
2023-02-14T23:00:28.200Z,82.18
2023-02-14T23:02:54.576Z,74.88
2023-02-14T23:05:20.951Z,87.55
2023-02-14T23:07:47.333Z,85.75
2023-02-14T23:10:13.708Z,76.82
2023-02-14T23:12:58.823Z,81.65
2023-02-14T23:15:43.661Z,77.25
2023-02-14T23:18:31.366Z,74.68
2023-02-14T23:21:16.145Z,69.50
2023-02-14T23:23:42.471Z,65.72
2023-02-14T23:26:08.923Z,98.72
2023-02-14T23:28:35.336Z,87.40
2023-02-14T23:31:02.531Z,73.68
2023-02-14T23:33:28.854Z,73.55
2023-02-14T23:35:55.334Z,78.50
2023-02-14T23:38:21.736Z,86.03
2023-02-14T23:41:06.722Z,71.93
2023-02-14T23:43:33.019Z,87.80
2023-02-14T23:46:00.254Z,78.05
2023-02-14T23:48:26.740Z,77.18
2023-02-14T23:50:53.049Z,66.65
2023-02-14T23:53:19.417Z,60.65
2023-02-14T23:55:45.737Z,65.35
2023-02-14T23:58:12.020Z,69.00
